sensor_id;sensor_type;location;lat;lon;timestamp;pressure;altitude;pressure_sealevel;temperature;humidity
60646;BME280;46462;32.608;-117.032;2024-01-16T00:01:57;99588.76;;;20.95;50.97
60646;BME280;46462;32.608;-117.032;2024-01-16T00:04:26;99586.95;;;20.84;51.31
60646;BME280;46462;32.608;-117.032;2024-01-16T00:06:58;99591.59;;;20.61;51.91
60646;BME280;46462;32.608;-117.032;2024-01-16T00:09:28;99595.43;;;20.52;52.17
60646;BME280;46462;32.608;-117.032;2024-01-16T00:11:59;99596.19;;;20.52;52.24
60646;BME280;46462;32.608;-117.032;2024-01-16T00:14:30;99596.25;;;20.47;52.22
60646;BME280;46462;32.608;-117.032;2024-01-16T00:17:02;99602.98;;;20.68;51.67
60646;BME280;46462;32.608;-117.032;2024-01-16T00:19:31;99604.56;;;20.52;52.04
60646;BME280;46462;32.608;-117.032;2024-01-16T00:22:02;99605.36;;;20.46;52.28
60646;BME280;46462;32.608;-117.032;2024-01-16T00:24:34;99605.62;;;20.34;52.61
60646;BME280;46462;32.608;-117.032;2024-01-16T00:27:04;99603.11;;;21.45;50.21
60646;BME280;46462;32.608;-117.032;2024-01-16T00:29:38;99602.91;;;22.22;48.42
60646;BME280;46462;32.608;-117.032;2024-01-16T00:32:06;99583.14;;;22.89;46.62
60646;BME280;46462;32.608;-117.032;2024-01-16T00:34:41;99586.22;;;23.18;45.69
60646;BME280;46462;32.608;-117.032;2024-01-16T00:37:07;99588.82;;;23.46;45.24
60646;BME280;46462;32.608;-117.032;2024-01-16T00:39:42;99590.26;;;23.62;45.19
60646;BME280;46462;32.608;-117.032;2024-01-16T00:42:08;99587.99;;;23.72;45.16
60646;BME280;46462;32.608;-117.032;2024-01-16T00:44:41;99588.12;;;23.76;45.08
60646;BME280;46462;32.608;-117.032;2024-01-16T00:47:09;99590.71;;;23.79;45.04
60646;BME280;46462;32.608;-117.032;2024-01-16T00:49:40;99597.81;;;23.79;45.06
60646;BME280;46462;32.608;-117.032;2024-01-16T00:52:11;99605.15;;;23.83;44.99
60646;BME280;46462;32.608;-117.032;2024-01-16T00:54:42;99606.40;;;23.82;45.05
60646;BME280;46462;32.608;-117.032;2024-01-16T00:57:12;99607.71;;;23.84;44.96
60646;BME280;46462;32.608;-117.032;2024-01-16T00:59:45;99606.89;;;23.82;45.11
60646;BME280;46462;32.608;-117.032;2024-01-16T01:02:15;99608.74;;;23.81;45.16
60646;BME280;46462;32.608;-117.032;2024-01-16T01:04:45;99612.25;;;23.79;45.24
60646;BME280;46462;32.608;-117.032;2024-01-16T01:07:17;99620.37;;;23.79;45.25
60646;BME280;46462;32.608;-117.032;2024-01-16T01:09:48;99625.34;;;23.76;45.32
60646;BME280;46462;32.608;-117.032;2024-01-16T01:12:18;99622.37;;;23.76;45.34
60646;BME280;46462;32.608;-117.032;2024-01-16T01:14:49;99628.48;;;23.73;45.36
60646;BME280;46462;32.608;-117.032;2024-01-16T01:17:18;99628.41;;;23.73;45.35
60646;BME280;46462;32.608;-117.032;2024-01-16T01:19:50;99634.62;;;23.71;45.39
60646;BME280;46462;32.608;-117.032;2024-01-16T01:22:20;99638.40;;;23.71;45.48
60646;BME280;46462;32.608;-117.032;2024-01-16T01:24:51;99641.01;;;23.68;45.53
60646;BME280;46462;32.608;-117.032;2024-01-16T01:27:21;99639.08;;;23.68;45.56
60646;BME280;46462;32.608;-117.032;2024-01-16T01:29:52;99639.14;;;23.65;45.58
60646;BME280;46462;32.608;-117.032;2024-01-16T01:32:24;99639.31;;;23.65;45.52
60646;BME280;46462;32.608;-117.032;2024-01-16T01:34:56;99642.56;;;23.62;45.57
60646;BME280;46462;32.608;-117.032;2024-01-16T01:37:25;99640.59;;;23.62;45.61
60646;BME280;46462;32.608;-117.032;2024-01-16T01:39:57;99639.61;;;23.59;45.71
60646;BME280;46462;32.608;-117.032;2024-01-16T01:42:26;99642.07;;;23.58;45.72
60646;BME280;46462;32.608;-117.032;2024-01-16T01:44:57;99643.41;;;23.57;45.69
60646;BME280;46462;32.608;-117.032;2024-01-16T01:47:28;99641.49;;;23.57;45.66
60646;BME280;46462;32.608;-117.032;2024-01-16T01:50:02;99640.71;;;23.54;45.73
60646;BME280;46462;32.608;-117.032;2024-01-16T01:52:29;99644.32;;;23.53;45.71
60646;BME280;46462;32.608;-117.032;2024-01-16T01:55:02;99645.58;;;23.51;45.70
60646;BME280;46462;32.608;-117.032;2024-01-16T01:57:31;99647.33;;;23.50;45.83
60646;BME280;46462;32.608;-117.032;2024-01-16T02:00:02;99646.14;;;23.43;45.91
60646;BME280;46462;32.608;-117.032;2024-01-16T02:02:33;99646.25;;;23.40;45.97
60646;BME280;46462;32.608;-117.032;2024-01-16T02:05:04;99648.51;;;23.37;45.95
60646;BME280;46462;32.608;-117.032;2024-01-16T02:07:34;99653.60;;;23.37;45.92
60646;BME280;46462;32.608;-117.032;2024-01-16T02:10:08;99656.96;;;23.34;46.02
60646;BME280;46462;32.608;-117.032;2024-01-16T02:12:38;99657.15;;;23.33;46.05
60646;BME280;46462;32.608;-117.032;2024-01-16T02:15:11;99666.80;;;23.30;46.08
60646;BME280;46462;32.608;-117.032;2024-01-16T02:17:41;99673.43;;;23.30;46.16
60646;BME280;46462;32.608;-117.032;2024-01-16T02:20:11;99675.07;;;23.28;46.23
60646;BME280;46462;32.608;-117.032;2024-01-16T02:22:45;99674.70;;;23.27;46.25
60646;BME280;46462;32.608;-117.032;2024-01-16T02:25:12;99672.08;;;23.25;46.24
60646;BME280;46462;32.608;-117.032;2024-01-16T02:27:43;99673.86;;;23.25;46.24
60646;BME280;46462;32.608;-117.032;2024-01-16T02:30:15;99678.09;;;23.22;46.37
60646;BME280;46462;32.608;-117.032;2024-01-16T02:32:44;99679.16;;;23.22;46.24
60646;BME280;46462;32.608;-117.032;2024-01-16T02:35:16;99680.72;;;23.18;46.41
60646;BME280;46462;32.608;-117.032;2024-01-16T02:37:45;99679.09;;;23.18;46.30
60646;BME280;46462;32.608;-117.032;2024-01-16T02:40:16;99679.11;;;23.15;46.43
60646;BME280;46462;32.608;-117.032;2024-01-16T02:42:48;99677.50;;;23.14;46.46
60646;BME280;46462;32.608;-117.032;2024-01-16T02:45:17;99679.52;;;23.10;46.44
60646;BME280;46462;32.608;-117.032;2024-01-16T02:47:54;99686.24;;;23.10;46.51
60646;BME280;46462;32.608;-117.032;2024-01-16T02:50:21;99692.65;;;23.08;46.47
60646;BME280;46462;32.608;-117.032;2024-01-16T02:52:50;99699.38;;;23.07;46.45
60646;BME280;46462;32.608;-117.032;2024-01-16T02:55:22;99704.60;;;23.04;46.40
60646;BME280;46462;32.608;-117.032;2024-01-16T02:57:51;99707.88;;;23.05;46.32
60646;BME280;46462;32.608;-117.032;2024-01-16T03:00:22;99706.68;;;23.03;46.33
60646;BME280;46462;32.608;-117.032;2024-01-16T03:02:54;99705.85;;;23.05;46.33
60646;BME280;46462;32.608;-117.032;2024-01-16T03:05:23;99704.50;;;23.02;46.37
60646;BME280;46462;32.608;-117.032;2024-01-16T03:10:24;99704.42;;;23.02;46.33
60646;BME280;46462;32.608;-117.032;2024-01-16T03:12:55;99702.91;;;23.02;46.24
60646;BME280;46462;32.608;-117.032;2024-01-16T03:15:26;99702.41;;;22.99;46.37
60646;BME280;46462;32.608;-117.032;2024-01-16T03:17:59;99704.42;;;22.96;46.41
60646;BME280;46462;32.608;-117.032;2024-01-16T03:20:27;99710.32;;;22.94;46.44
60646;BME280;46462;32.608;-117.032;2024-01-16T03:22:59;99710.85;;;22.94;46.32
60646;BME280;46462;32.608;-117.032;2024-01-16T03:25:28;99713.57;;;22.91;46.36
60646;BME280;46462;32.608;-117.032;2024-01-16T03:28:00;99714.68;;;22.90;46.42
60646;BME280;46462;32.608;-117.032;2024-01-16T03:30:31;99721.42;;;22.88;46.41
60646;BME280;46462;32.608;-117.032;2024-01-16T03:33:00;99720.11;;;22.87;46.41
60646;BME280;46462;32.608;-117.032;2024-01-16T03:35:30;99723.06;;;22.84;46.48
60646;BME280;46462;32.608;-117.032;2024-01-16T03:38:02;99725.89;;;22.82;46.47
60646;BME280;46462;32.608;-117.032;2024-01-16T03:40:33;99727.24;;;22.80;46.57
60646;BME280;46462;32.608;-117.032;2024-01-16T03:43:03;99729.85;;;22.80;46.67
60646;BME280;46462;32.608;-117.032;2024-01-16T03:45:35;99730.09;;;22.80;46.59
60646;BME280;46462;32.608;-117.032;2024-01-16T03:48:07;99734.61;;;22.74;46.66
60646;BME280;46462;32.608;-117.032;2024-01-16T03:50:35;99732.75;;;22.73;46.74
60646;BME280;46462;32.608;-117.032;2024-01-16T03:53:06;99730.24;;;22.72;46.75
60646;BME280;46462;32.608;-117.032;2024-01-16T03:55:36;99729.22;;;22.71;46.78
60646;BME280;46462;32.608;-117.032;2024-01-16T03:58:07;99731.84;;;22.68;46.79
60646;BME280;46462;32.608;-117.032;2024-01-16T04:00:38;99733.33;;;22.61;46.81
60646;BME280;46462;32.608;-117.032;2024-01-16T04:03:08;99732.32;;;22.59;46.90
60646;BME280;46462;32.608;-117.032;2024-01-16T04:05:39;99732.00;;;22.55;47.10
60646;BME280;46462;32.608;-117.032;2024-01-16T04:08:09;99732.16;;;22.53;46.95
60646;BME280;46462;32.608;-117.032;2024-01-16T04:10:41;99732.30;;;22.53;46.97
60646;BME280;46462;32.608;-117.032;2024-01-16T04:13:11;99733.31;;;22.52;46.79
60646;BME280;46462;32.608;-117.032;2024-01-16T04:15:44;99738.16;;;22.49;46.95
60646;BME280;46462;32.608;-117.032;2024-01-16T04:18:12;99741.95;;;22.45;47.16
60646;BME280;46462;32.608;-117.032;2024-01-16T04:20:45;99745.96;;;22.43;47.14
60646;BME280;46462;32.608;-117.032;2024-01-16T04:23:13;99750.48;;;22.41;46.82
60646;BME280;46462;32.608;-117.032;2024-01-16T04:25:44;99750.61;;;22.37;46.87
60646;BME280;46462;32.608;-117.032;2024-01-16T04:28:15;99750.02;;;22.38;46.87
60646;BME280;46462;32.608;-117.032;2024-01-16T04:30:46;99748.50;;;22.38;46.76
60646;BME280;46462;32.608;-117.032;2024-01-16T04:33:17;99748.39;;;22.35;46.95
60646;BME280;46462;32.608;-117.032;2024-01-16T04:35:47;99744.69;;;22.31;46.96
60646;BME280;46462;32.608;-117.032;2024-01-16T04:38:17;99740.45;;;22.27;47.08
60646;BME280;46462;32.608;-117.032;2024-01-16T04:40:49;99736.82;;;22.27;47.04
60646;BME280;46462;32.608;-117.032;2024-01-16T04:43:19;99734.81;;;22.27;46.73
60646;BME280;46462;32.608;-117.032;2024-01-16T04:45:50;99735.56;;;22.19;46.94
60646;BME280;46462;32.608;-117.032;2024-01-16T04:48:20;99735.97;;;22.15;46.86
60646;BME280;46462;32.608;-117.032;2024-01-16T04:50:51;99735.12;;;22.10;46.84
60646;BME280;46462;32.608;-117.032;2024-01-16T04:53:22;99731.81;;;22.20;47.22
60646;BME280;46462;32.608;-117.032;2024-01-16T04:55:53;99725.86;;;22.23;46.95
60646;BME280;46462;32.608;-117.032;2024-01-16T04:58:23;99727.19;;;22.21;46.63
60646;BME280;46462;32.608;-117.032;2024-01-16T05:00:54;99728.05;;;22.12;46.68
60646;BME280;46462;32.608;-117.032;2024-01-16T05:03:25;99728.90;;;22.13;47.07
60646;BME280;46462;32.608;-117.032;2024-01-16T05:05:56;99727.14;;;22.00;47.43
60646;BME280;46462;32.608;-117.032;2024-01-16T05:08:26;99728.71;;;22.01;47.34
60646;BME280;46462;32.608;-117.032;2024-01-16T05:10:57;99727.40;;;21.94;47.13
60646;BME280;46462;32.608;-117.032;2024-01-16T05:13:27;99726.75;;;21.90;47.14
60646;BME280;46462;32.608;-117.032;2024-01-16T05:15:58;99727.26;;;21.94;47.12
60646;BME280;46462;32.608;-117.032;2024-01-16T05:18:29;99726.77;;;21.86;47.45
60646;BME280;46462;32.608;-117.032;2024-01-16T05:20:59;99726.10;;;21.88;46.93
60646;BME280;46462;32.608;-117.032;2024-01-16T05:23:30;99726.87;;;21.82;47.56
60646;BME280;46462;32.608;-117.032;2024-01-16T05:26:01;99721.65;;;21.79;47.49
60646;BME280;46462;32.608;-117.032;2024-01-16T05:28:32;99719.83;;;21.83;47.13
60646;BME280;46462;32.608;-117.032;2024-01-16T05:31:02;99722.33;;;21.76;47.46
60646;BME280;46462;32.608;-117.032;2024-01-16T05:33:33;99727.98;;;21.80;46.99
60646;BME280;46462;32.608;-117.032;2024-01-16T05:36:04;99732.76;;;21.75;47.58
60646;BME280;46462;32.608;-117.032;2024-01-16T05:38:34;99736.72;;;21.72;47.43
60646;BME280;46462;32.608;-117.032;2024-01-16T05:41:05;99736.01;;;21.64;47.50
60646;BME280;46462;32.608;-117.032;2024-01-16T05:43:36;99739.45;;;21.69;47.18
60646;BME280;46462;32.608;-117.032;2024-01-16T05:46:07;99741.52;;;21.67;47.39
60646;BME280;46462;32.608;-117.032;2024-01-16T05:48:37;99743.07;;;21.66;47.70
60646;BME280;46462;32.608;-117.032;2024-01-16T05:51:08;99741.54;;;21.56;47.62
60646;BME280;46462;32.608;-117.032;2024-01-16T05:53:39;99742.61;;;21.73;46.83
60646;BME280;46462;32.608;-117.032;2024-01-16T05:56:10;99741.88;;;21.68;47.33
60646;BME280;46462;32.608;-117.032;2024-01-16T05:58:40;99736.67;;;21.60;47.24
60646;BME280;46462;32.608;-117.032;2024-01-16T06:01:11;99734.99;;;21.58;47.53
60646;BME280;46462;32.608;-117.032;2024-01-16T06:03:42;99734.93;;;21.50;47.15
60646;BME280;46462;32.608;-117.032;2024-01-16T06:06:13;99730.68;;;21.49;47.33
60646;BME280;46462;32.608;-117.032;2024-01-16T06:08:44;99725.32;;;21.40;47.34
60646;BME280;46462;32.608;-117.032;2024-01-16T06:11:15;99717.48;;;21.37;47.56
60646;BME280;46462;32.608;-117.032;2024-01-16T06:13:45;99716.21;;;21.41;47.74
60646;BME280;46462;32.608;-117.032;2024-01-16T06:16:16;99713.46;;;21.38;47.57
60646;BME280;46462;32.608;-117.032;2024-01-16T06:18:46;99713.08;;;21.27;47.88
60646;BME280;46462;32.608;-117.032;2024-01-16T06:21:17;99710.26;;;21.25;47.64
60646;BME280;46462;32.608;-117.032;2024-01-16T06:23:48;99705.01;;;21.23;47.87
60646;BME280;46462;32.608;-117.032;2024-01-16T06:26:19;99704.92;;;21.28;47.44
60646;BME280;46462;32.608;-117.032;2024-01-16T06:28:49;99704.19;;;21.25;47.80
60646;BME280;46462;32.608;-117.032;2024-01-16T06:31:20;99700.90;;;21.24;47.75
60646;BME280;46462;32.608;-117.032;2024-01-16T06:33:50;99698.89;;;21.22;47.56
60646;BME280;46462;32.608;-117.032;2024-01-16T06:36:21;99694.48;;;21.19;47.73
60646;BME280;46462;32.608;-117.032;2024-01-16T06:38:53;99692.17;;;21.22;47.48
60646;BME280;46462;32.608;-117.032;2024-01-16T06:41:23;99686.70;;;21.22;47.77
60646;BME280;46462;32.608;-117.032;2024-01-16T06:43:53;99679.41;;;21.20;47.52
60646;BME280;46462;32.608;-117.032;2024-01-16T06:46:24;99676.77;;;21.17;47.57
60646;BME280;46462;32.608;-117.032;2024-01-16T06:48:54;99678.63;;;21.09;47.68
60646;BME280;46462;32.608;-117.032;2024-01-16T06:51:25;99679.74;;;21.04;47.55
60646;BME280;46462;32.608;-117.032;2024-01-16T06:53:56;99679.05;;;21.09;47.52
60646;BME280;46462;32.608;-117.032;2024-01-16T06:56:27;99679.45;;;21.10;47.56
60646;BME280;46462;32.608;-117.032;2024-01-16T06:58:58;99678.26;;;21.01;47.55
60646;BME280;46462;32.608;-117.032;2024-01-16T07:01:28;99674.48;;;21.08;47.35
60646;BME280;46462;32.608;-117.032;2024-01-16T07:03:59;99672.66;;;21.10;47.25
60646;BME280;46462;32.608;-117.032;2024-01-16T07:06:30;99669.46;;;21.03;47.44
60646;BME280;46462;32.608;-117.032;2024-01-16T07:09:00;99668.69;;;20.98;47.59
60646;BME280;46462;32.608;-117.032;2024-01-16T07:11:31;99666.93;;;21.02;47.11
60646;BME280;46462;32.608;-117.032;2024-01-16T07:14:02;99662.77;;;21.01;47.51
60646;BME280;46462;32.608;-117.032;2024-01-16T07:16:33;99662.39;;;20.89;47.27
60646;BME280;46462;32.608;-117.032;2024-01-16T07:19:04;99664.22;;;20.88;47.31
60646;BME280;46462;32.608;-117.032;2024-01-16T07:21:34;99661.38;;;20.91;47.03
60646;BME280;46462;32.608;-117.032;2024-01-16T07:24:05;99655.73;;;20.90;47.37
60646;BME280;46462;32.608;-117.032;2024-01-16T07:26:36;99653.43;;;20.85;47.36
60646;BME280;46462;32.608;-117.032;2024-01-16T07:29:07;99651.20;;;20.84;47.52
60646;BME280;46462;32.608;-117.032;2024-01-16T07:31:37;99649.61;;;20.85;47.55
60646;BME280;46462;32.608;-117.032;2024-01-16T07:34:08;99646.01;;;20.79;47.48
60646;BME280;46462;32.608;-117.032;2024-01-16T07:36:39;99645.64;;;20.81;47.44
60646;BME280;46462;32.608;-117.032;2024-01-16T07:39:10;99644.51;;;20.74;47.51
60646;BME280;46462;32.608;-117.032;2024-01-16T07:41:41;99644.33;;;20.76;47.35
60646;BME280;46462;32.608;-117.032;2024-01-16T07:44:11;99642.82;;;20.75;47.21
60646;BME280;46462;32.608;-117.032;2024-01-16T07:46:42;99641.80;;;20.83;47.02
60646;BME280;46462;32.608;-117.032;2024-01-16T07:49:13;99640.83;;;20.81;46.97
60646;BME280;46462;32.608;-117.032;2024-01-16T07:51:44;99639.82;;;20.75;47.06
60646;BME280;46462;32.608;-117.032;2024-01-16T07:54:15;99641.20;;;20.73;47.08
60646;BME280;46462;32.608;-117.032;2024-01-16T07:56:46;99640.81;;;20.62;47.54
60646;BME280;46462;32.608;-117.032;2024-01-16T07:59:16;99641.00;;;20.60;47.57
60646;BME280;46462;32.608;-117.032;2024-01-16T08:01:47;99636.57;;;20.53;47.67
60646;BME280;46462;32.608;-117.032;2024-01-16T08:04:18;99635.92;;;20.47;47.81
60646;BME280;46462;32.608;-117.032;2024-01-16T08:06:48;99634.23;;;20.46;47.57
60646;BME280;46462;32.608;-117.032;2024-01-16T08:09:19;99630.32;;;20.49;47.50
60646;BME280;46462;32.608;-117.032;2024-01-16T08:11:50;99635.24;;;20.49;47.87
60646;BME280;46462;32.608;-117.032;2024-01-16T08:14:21;99638.75;;;20.48;47.69
60646;BME280;46462;32.608;-117.032;2024-01-16T08:16:52;99641.41;;;20.50;47.43
60646;BME280;46462;32.608;-117.032;2024-01-16T08:19:22;99646.83;;;20.41;47.72
60646;BME280;46462;32.608;-117.032;2024-01-16T08:21:53;99652.49;;;20.50;47.51
60646;BME280;46462;32.608;-117.032;2024-01-16T08:24:24;99653.22;;;20.48;47.49
60646;BME280;46462;32.608;-117.032;2024-01-16T08:26:55;99657.23;;;20.40;47.72
60646;BME280;46462;32.608;-117.032;2024-01-16T08:29:25;99657.63;;;20.37;47.87
60646;BME280;46462;32.608;-117.032;2024-01-16T08:31:56;99653.71;;;20.26;48.10
60646;BME280;46462;32.608;-117.032;2024-01-16T08:34:27;99655.58;;;20.31;47.75
60646;BME280;46462;32.608;-117.032;2024-01-16T08:36:58;99659.17;;;20.37;47.69
60646;BME280;46462;32.608;-117.032;2024-01-16T08:39:29;99660.24;;;20.43;47.63
60646;BME280;46462;32.608;-117.032;2024-01-16T08:42:00;99660.95;;;20.39;47.65
60646;BME280;46462;32.608;-117.032;2024-01-16T08:44:30;99656.21;;;20.24;47.79
60646;BME280;46462;32.608;-117.032;2024-01-16T08:47:01;99654.78;;;20.32;47.93
60646;BME280;46462;32.608;-117.032;2024-01-16T08:49:32;99651.24;;;20.39;47.64
60646;BME280;46462;32.608;-117.032;2024-01-16T08:52:03;99653.67;;;20.41;47.63
60646;BME280;46462;32.608;-117.032;2024-01-16T08:54:33;99652.87;;;20.29;47.85
60646;BME280;46462;32.608;-117.032;2024-01-16T08:57:05;99652.79;;;20.35;47.66
60646;BME280;46462;32.608;-117.032;2024-01-16T08:59:35;99654.31;;;20.29;47.68
60646;BME280;46462;32.608;-117.032;2024-01-16T09:02:06;99658.20;;;20.37;47.41
60646;BME280;46462;32.608;-117.032;2024-01-16T09:04:37;99660.80;;;20.13;48.03
60646;BME280;46462;32.608;-117.032;2024-01-16T09:07:07;99665.51;;;20.13;48.13
60646;BME280;46462;32.608;-117.032;2024-01-16T09:09:38;99669.44;;;20.15;47.94
60646;BME280;46462;32.608;-117.032;2024-01-16T09:12:09;99667.69;;;20.15;47.89
60646;BME280;46462;32.608;-117.032;2024-01-16T09:14:40;99666.61;;;20.08;48.10
60646;BME280;46462;32.608;-117.032;2024-01-16T09:17:11;99665.42;;;20.12;47.83
60646;BME280;46462;32.608;-117.032;2024-01-16T09:19:41;99663.83;;;20.08;47.92
60646;BME280;46462;32.608;-117.032;2024-01-16T09:22:12;99658.63;;;20.07;47.87
60646;BME280;46462;32.608;-117.032;2024-01-16T09:24:43;99651.13;;;20.09;47.89
60646;BME280;46462;32.608;-117.032;2024-01-16T09:27:14;99649.51;;;20.17;47.72
60646;BME280;46462;32.608;-117.032;2024-01-16T09:29:44;99644.94;;;20.15;47.79
60646;BME280;46462;32.608;-117.032;2024-01-16T09:32:15;99640.02;;;20.07;47.87
60646;BME280;46462;32.608;-117.032;2024-01-16T09:34:46;99641.13;;;20.11;47.76
60646;BME280;46462;32.608;-117.032;2024-01-16T09:37:17;99648.27;;;20.10;47.82
60646;BME280;46462;32.608;-117.032;2024-01-16T09:39:47;99642.10;;;20.11;47.70
60646;BME280;46462;32.608;-117.032;2024-01-16T09:42:20;99639.19;;;20.04;47.81
60646;BME280;46462;32.608;-117.032;2024-01-16T09:44:49;99639.62;;;19.98;48.05
60646;BME280;46462;32.608;-117.032;2024-01-16T09:47:20;99644.12;;;20.01;47.83
60646;BME280;46462;32.608;-117.032;2024-01-16T09:49:50;99646.58;;;20.00;47.96
60646;BME280;46462;32.608;-117.032;2024-01-16T09:52:21;99648.15;;;19.91;48.14
60646;BME280;46462;32.608;-117.032;2024-01-16T09:54:52;99648.02;;;19.94;47.87
60646;BME280;46462;32.608;-117.032;2024-01-16T09:57:25;99648.78;;;20.00;47.78
60646;BME280;46462;32.608;-117.032;2024-01-16T09:59:53;99652.83;;;20.01;47.59
60646;BME280;46462;32.608;-117.032;2024-01-16T10:02:24;99655.15;;;19.95;47.67
60646;BME280;46462;32.608;-117.032;2024-01-16T10:04:55;99648.52;;;19.92;47.74
60646;BME280;46462;32.608;-117.032;2024-01-16T10:07:26;99646.65;;;19.90;47.87
60646;BME280;46462;32.608;-117.032;2024-01-16T10:09:57;99651.07;;;19.81;48.23
60646;BME280;46462;32.608;-117.032;2024-01-16T10:12:28;99659.98;;;19.76;48.28
60646;BME280;46462;32.608;-117.032;2024-01-16T10:14:59;99663.65;;;19.81;48.08
60646;BME280;46462;32.608;-117.032;2024-01-16T10:17:37;99655.23;;;19.91;47.54
60646;BME280;46462;32.608;-117.032;2024-01-16T10:20:00;99648.07;;;19.85;47.81
60646;BME280;46462;32.608;-117.032;2024-01-16T10:22:31;99653.42;;;19.80;47.74
60646;BME280;46462;32.608;-117.032;2024-01-16T10:25:06;99655.20;;;19.80;47.90
60646;BME280;46462;32.608;-117.032;2024-01-16T10:27:32;99649.74;;;19.76;47.95
60646;BME280;46462;32.608;-117.032;2024-01-16T10:30:08;99644.50;;;19.71;48.16
60646;BME280;46462;32.608;-117.032;2024-01-16T10:32:39;99642.09;;;19.70;47.96
60646;BME280;46462;32.608;-117.032;2024-01-16T10:35:10;99644.28;;;19.69;47.93
60646;BME280;46462;32.608;-117.032;2024-01-16T10:37:44;99647.36;;;19.68;47.97
60646;BME280;46462;32.608;-117.032;2024-01-16T10:40:12;99647.71;;;19.68;48.09
60646;BME280;46462;32.608;-117.032;2024-01-16T10:42:41;99654.72;;;19.65;48.32
60646;BME280;46462;32.608;-117.032;2024-01-16T10:45:18;99669.79;;;19.62;48.19
60646;BME280;46462;32.608;-117.032;2024-01-16T10:47:43;99682.28;;;19.56;48.09
60646;BME280;46462;32.608;-117.032;2024-01-16T10:50:14;99681.37;;;19.61;48.03
60646;BME280;46462;32.608;-117.032;2024-01-16T10:52:48;99671.79;;;19.60;47.98
60646;BME280;46462;32.608;-117.032;2024-01-16T10:55:21;99669.18;;;19.56;48.13
60646;BME280;46462;32.608;-117.032;2024-01-16T10:57:47;99666.49;;;19.57;47.89
60646;BME280;46462;32.608;-117.032;2024-01-16T11:00:19;99666.19;;;19.53;48.02
60646;BME280;46462;32.608;-117.032;2024-01-16T11:02:54;99669.52;;;19.56;47.93
60646;BME280;46462;32.608;-117.032;2024-01-16T11:05:19;99662.17;;;19.56;47.90
60646;BME280;46462;32.608;-117.032;2024-01-16T11:07:50;99653.79;;;19.53;48.00
60646;BME280;46462;32.608;-117.032;2024-01-16T11:10:21;99655.25;;;19.49;47.93
60646;BME280;46462;32.608;-117.032;2024-01-16T11:12:52;99651.09;;;19.50;47.91
60646;BME280;46462;32.608;-117.032;2024-01-16T11:15:22;99647.71;;;19.57;47.80
60646;BME280;46462;32.608;-117.032;2024-01-16T11:17:53;99646.05;;;19.54;47.71
60646;BME280;46462;32.608;-117.032;2024-01-16T11:20:23;99649.55;;;19.57;47.67
60646;BME280;46462;32.608;-117.032;2024-01-16T11:22:54;99648.59;;;19.50;47.84
60646;BME280;46462;32.608;-117.032;2024-01-16T11:25:31;99647.33;;;19.48;47.81
60646;BME280;46462;32.608;-117.032;2024-01-16T11:27:55;99644.40;;;19.47;47.67
60646;BME280;46462;32.608;-117.032;2024-01-16T11:30:30;99640.38;;;19.52;47.68
60646;BME280;46462;32.608;-117.032;2024-01-16T11:32:56;99638.34;;;19.57;47.69
60646;BME280;46462;32.608;-117.032;2024-01-16T11:35:32;99642.40;;;19.49;47.54
60646;BME280;46462;32.608;-117.032;2024-01-16T11:38:04;99649.60;;;19.48;47.56
60646;BME280;46462;32.608;-117.032;2024-01-16T11:40:32;99656.72;;;19.47;47.75
60646;BME280;46462;32.608;-117.032;2024-01-16T11:48:08;99661.21;;;19.42;47.87
60646;BME280;46462;32.608;-117.032;2024-01-16T11:50:32;99656.01;;;19.23;48.06
60646;BME280;46462;32.608;-117.032;2024-01-16T11:53:03;99648.30;;;19.30;47.83
60646;BME280;46462;32.608;-117.032;2024-01-16T11:55:35;99650.68;;;19.28;47.79
60646;BME280;46462;32.608;-117.032;2024-01-16T11:58:16;99658.10;;;19.38;47.63
60646;BME280;46462;32.608;-117.032;2024-01-16T12:00:36;99653.54;;;19.32;47.60
60646;BME280;46462;32.608;-117.032;2024-01-16T12:03:07;99654.68;;;19.34;47.60
60646;BME280;46462;32.608;-117.032;2024-01-16T12:05:37;99652.40;;;19.30;47.63
60646;BME280;46462;32.608;-117.032;2024-01-16T12:08:08;99650.58;;;19.21;48.00
60646;BME280;46462;32.608;-117.032;2024-01-16T12:10:46;99651.65;;;19.17;47.97
60646;BME280;46462;32.608;-117.032;2024-01-16T12:13:13;99652.78;;;19.15;48.16
60646;BME280;46462;32.608;-117.032;2024-01-16T12:15:41;99656.14;;;19.20;47.93
60646;BME280;46462;32.608;-117.032;2024-01-16T12:18:17;99659.92;;;19.21;47.98
60646;BME280;46462;32.608;-117.032;2024-01-16T12:20:42;99663.90;;;19.17;47.94
60646;BME280;46462;32.608;-117.032;2024-01-16T12:23:14;99665.44;;;19.13;47.92
60646;BME280;46462;32.608;-117.032;2024-01-16T12:25:43;99663.43;;;19.19;47.89
60646;BME280;46462;32.608;-117.032;2024-01-16T12:28:14;99664.00;;;19.16;47.88
60646;BME280;46462;32.608;-117.032;2024-01-16T12:30:50;99662.75;;;19.14;47.88
60646;BME280;46462;32.608;-117.032;2024-01-16T12:33:16;99658.73;;;19.16;47.73
60646;BME280;46462;32.608;-117.032;2024-01-16T12:35:47;99653.44;;;19.16;47.65
60646;BME280;46462;32.608;-117.032;2024-01-16T12:38:18;99653.14;;;19.02;47.93
60646;BME280;46462;32.608;-117.032;2024-01-16T12:40:49;99656.03;;;19.13;47.50
60646;BME280;46462;32.608;-117.032;2024-01-16T12:43:19;99658.32;;;19.15;47.50
60646;BME280;46462;32.608;-117.032;2024-01-16T12:45:55;99660.94;;;19.10;47.60
60646;BME280;46462;32.608;-117.032;2024-01-16T12:48:23;99665.31;;;18.95;47.85
60646;BME280;46462;32.608;-117.032;2024-01-16T12:50:52;99664.28;;;19.06;47.75
60646;BME280;46462;32.608;-117.032;2024-01-16T12:53:22;99663.26;;;19.09;47.57
60646;BME280;46462;32.608;-117.032;2024-01-16T12:55:57;99667.81;;;19.03;47.56